createdAt,value
2017-11-09T00:02:01.955Z,106.30
2017-11-09T00:04:34.331Z,100.13
2017-11-09T00:07:00.744Z,107.50
2017-11-09T00:09:26.975Z,99.33
2017-11-09T00:11:53.943Z,105.93
2017-11-09T00:14:20.193Z,96.17
2017-11-09T00:16:46.452Z,103.63
2017-11-09T00:19:12.672Z,99.67
2017-11-09T00:21:38.980Z,98.77
2017-11-09T00:24:05.215Z,99.13
2017-11-09T00:26:31.448Z,103.03
2017-11-09T00:28:57.655Z,102.90
2017-11-09T00:31:23.928Z,103.43
2017-11-09T00:33:50.940Z,98.90
2017-11-09T00:36:17.200Z,93.17
2017-11-09T00:38:44.197Z,104.97
2017-11-09T00:41:10.556Z,100.27
2017-11-09T00:43:37.523Z,96.73
2017-11-09T00:46:04.561Z,106.13
2017-11-09T00:48:30.818Z,105.80
2017-11-09T00:50:57.095Z,103.20
2017-11-09T00:53:23.330Z,107.23
2017-11-09T00:55:49.572Z,101.87
2017-11-09T00:58:15.828Z,100.23
2017-11-09T01:00:42.067Z,98.93
2017-11-09T01:03:08.287Z,96.20
2017-11-09T01:05:34.560Z,97.07
2017-11-09T01:08:00.822Z,104.97
2017-11-09T01:10:27.068Z,92.70
2017-11-09T01:12:53.378Z,92.97
2017-11-09T01:15:19.675Z,97.20
2017-11-09T01:17:45.889Z,102.13
2017-11-09T01:20:12.146Z,102.07
2017-11-09T01:22:39.263Z,102.03
2017-11-09T01:25:05.575Z,104.00
2017-11-09T01:27:31.815Z,106.43
2017-11-09T01:29:58.036Z,99.47
2017-11-09T01:32:24.318Z,98.87
2017-11-09T01:34:50.542Z,90.83
2017-11-09T01:37:16.799Z,106.93
2017-11-09T01:39:43.814Z,99.10
2017-11-09T01:42:10.819Z,99.40
2017-11-09T01:44:37.183Z,105.67
2017-11-09T01:47:03.441Z,102.07
2017-11-09T01:49:30.418Z,103.53
2017-11-09T01:51:56.687Z,106.23
2017-11-09T01:54:22.942Z,101.13
2017-11-09T01:56:49.971Z,98.37
2017-11-09T01:59:16.955Z,104.20
2017-11-09T02:01:43.215Z,98.17
2017-11-09T02:04:09.472Z,109.37
2017-11-09T02:06:35.852Z,103.50
2017-11-09T02:09:02.156Z,111.80
2017-11-09T02:11:29.190Z,96.63
2017-11-09T02:13:55.441Z,103.20
2017-11-09T02:16:21.709Z,105.77
2017-11-09T02:18:47.934Z,97.87
2017-11-09T02:21:14.211Z,96.03
2017-11-09T02:23:41.276Z,114.17
2017-11-09T02:26:08.296Z,100.17
2017-11-09T02:28:35.273Z,103.63
2017-11-09T02:31:01.549Z,107.53
2017-11-09T02:33:27.806Z,104.67
2017-11-09T02:35:54.800Z,103.50
2017-11-09T02:38:21.119Z,100.23
2017-11-09T02:40:47.453Z,112.83
2017-11-09T02:43:13.719Z,106.97
2017-11-09T02:45:40.012Z,108.00
2017-11-09T02:48:06.306Z,107.90
2017-11-09T02:50:33.330Z,97.43
2017-11-09T02:53:00.416Z,94.73
2017-11-09T02:55:26.664Z,111.20
2017-11-09T02:57:53.183Z,106.23
2017-11-09T03:00:19.430Z,102.87
2017-11-09T03:02:45.701Z,104.83
2017-11-09T03:05:11.933Z,109.00
2017-11-09T03:07:39.012Z,119.87
2017-11-09T03:10:05.240Z,102.47
2017-11-09T03:12:31.511Z,106.43
2017-11-09T03:14:57.745Z,111.67
2017-11-09T03:17:24.040Z,101.57
2017-11-09T03:19:50.300Z,108.13
2017-11-09T03:22:16.640Z,113.00
2017-11-09T03:24:43.005Z,110.83
2017-11-09T03:27:10.089Z,119.87
2017-11-09T03:29:36.347Z,103.47
2017-11-09T03:32:02.653Z,104.90
2017-11-09T03:34:29.024Z,107.43
2017-11-09T03:36:55.407Z,110.60
2017-11-09T03:39:21.635Z,112.03
2017-11-09T03:41:47.887Z,107.13
2017-11-09T03:44:14.145Z,100.60
2017-11-09T03:46:41.148Z,103.03
2017-11-09T03:49:07.402Z,103.20
2017-11-09T03:51:33.643Z,118.37
2017-11-09T03:54:00.647Z,105.83
2017-11-09T03:56:26.962Z,108.70
2017-11-09T03:58:53.276Z,117.00
2017-11-09T04:01:19.516Z,108.27
2017-11-09T04:03:45.824Z,113.47
2017-11-09T04:06:12.800Z,106.10
2017-11-09T04:08:39.107Z,115.93
2017-11-09T04:11:05.403Z,122.90
2017-11-09T04:13:32.470Z,120.97
2017-11-09T04:15:59.456Z,132.47
2017-11-09T04:18:25.704Z,123.70
2017-11-09T04:20:52.802Z,115.00
2017-11-09T04:23:19.051Z,112.33
2017-11-09T04:25:45.276Z,112.73
2017-11-09T04:28:11.534Z,122.63
2017-11-09T04:30:38.169Z,103.27
2017-11-09T04:33:04.414Z,108.70
2017-11-09T04:35:30.676Z,114.77
2017-11-09T04:37:57.035Z,113.00
2017-11-09T04:40:23.336Z,112.90
2017-11-09T04:42:49.622Z,116.40
2017-11-09T04:45:15.973Z,114.77
2017-11-09T04:47:42.302Z,114.60
2017-11-09T04:50:09.375Z,113.73
2017-11-09T04:52:36.369Z,111.57
2017-11-09T04:55:02.781Z,124.03
2017-11-09T04:57:28.986Z,114.43
2017-11-09T04:59:55.195Z,121.07
2017-11-09T05:02:22.227Z,110.83
2017-11-09T05:05:04.589Z,128.13
2017-11-09T05:07:32.046Z,109.77
2017-11-09T05:09:59.701Z,116.30
2017-11-09T05:12:26.761Z,122.23
2017-11-09T05:14:53.860Z,104.57
2017-11-09T05:17:21.422Z,101.43
2017-11-09T05:19:47.767Z,98.93
2017-11-09T05:22:14.944Z,109.57
2017-11-09T05:24:41.286Z,110.07
2017-11-09T05:27:08.315Z,121.87
2017-11-09T05:29:34.573Z,119.17
2017-11-09T05:32:03.087Z,127.47
2017-11-09T05:37:28.749Z,122.17
2017-11-09T05:39:55.355Z,108.90
2017-11-09T05:42:21.787Z,128.50
2017-11-09T05:44:48.840Z,112.70
2017-11-09T05:47:15.814Z,114.63
2017-11-09T05:49:42.090Z,119.30
2017-11-09T05:52:08.370Z,121.43
2017-11-09T05:54:34.693Z,120.27
2017-11-09T05:57:01.070Z,113.67
2017-11-09T05:59:28.191Z,125.33
2017-11-09T06:01:54.425Z,118.47
2017-11-09T06:04:20.757Z,110.40
2017-11-09T06:06:47.100Z,122.60
2017-11-09T06:09:13.430Z,103.87
2017-11-09T06:11:39.694Z,113.83
2017-11-09T06:14:06.755Z,107.17
2017-11-09T06:16:33.089Z,132.60
2017-11-09T06:18:59.377Z,111.90
2017-11-09T06:21:25.711Z,116.30
2017-11-09T06:23:52.055Z,124.33
2017-11-09T06:26:19.074Z,115.93
2017-11-09T06:28:45.377Z,109.07
2017-11-09T06:31:11.672Z,123.87
2017-11-09T06:33:38.713Z,117.60
2017-11-09T06:36:05.710Z,115.77
2017-11-09T06:38:32.056Z,108.77
2017-11-09T06:40:58.299Z,118.93
2017-11-09T06:43:24.602Z,105.37
2017-11-09T06:45:50.900Z,122.70
2017-11-09T06:48:17.142Z,114.40
2017-11-09T06:50:43.481Z,117.30
2017-11-09T06:53:09.775Z,112.70
2017-11-09T06:55:36.030Z,117.73
2017-11-09T06:58:02.313Z,113.43
2017-11-09T07:00:28.600Z,120.80
2017-11-09T07:02:54.846Z,116.07
2017-11-09T07:05:21.284Z,119.67
2017-11-09T07:07:48.264Z,121.17
2017-11-09T07:10:15.271Z,111.80
2017-11-09T07:12:41.535Z,117.03
2017-11-09T07:15:08.568Z,114.70
2017-11-09T07:17:34.854Z,112.83
2017-11-09T07:20:01.138Z,110.33
2017-11-09T07:22:27.441Z,110.53
2017-11-09T07:24:55.152Z,122.93
2017-11-09T07:27:21.451Z,123.37
2017-11-09T07:29:48.433Z,128.00
2017-11-09T07:32:14.707Z,124.47
2017-11-09T07:34:40.975Z,116.67
2017-11-09T07:37:07.208Z,117.23
2017-11-09T07:39:33.504Z,110.57
2017-11-09T07:41:59.738Z,114.63
2017-11-09T07:44:26.732Z,113.37
2017-11-09T07:46:53.008Z,128.10
2017-11-09T07:49:19.355Z,113.50
2017-11-09T07:51:45.685Z,116.17
2017-11-09T07:54:11.999Z,114.57
2017-11-09T07:56:38.251Z,112.90
2017-11-09T07:59:04.585Z,123.23
2017-11-09T08:01:30.892Z,127.57
2017-11-09T08:03:57.902Z,123.20
2017-11-09T08:06:24.194Z,118.23
2017-11-09T08:08:50.515Z,124.87
2017-11-09T08:11:16.786Z,116.63
2017-11-09T08:13:43.099Z,118.17
2017-11-09T08:16:09.391Z,114.40
2017-11-09T08:18:35.706Z,117.30
2017-11-09T08:21:02.742Z,122.53
2017-11-09T08:23:29.012Z,110.57
2017-11-09T08:25:58.777Z,115.10
2017-11-09T08:28:26.620Z,120.50
2017-11-09T08:30:55.269Z,100.07
2017-11-09T08:33:23.362Z,112.43
2017-11-09T08:35:49.749Z,112.90
2017-11-09T08:38:16.915Z,118.13
2017-11-09T08:40:43.246Z,118.23
2017-11-09T08:43:10.283Z,110.07
2017-11-09T08:45:37.283Z,125.23
2017-11-09T08:48:03.607Z,109.90
2017-11-09T08:50:29.892Z,110.53
2017-11-09T08:52:56.272Z,120.63
2017-11-09T08:55:22.520Z,117.83
2017-11-09T08:57:48.810Z,102.97
2017-11-09T09:00:15.063Z,132.33
2017-11-09T09:02:41.381Z,115.03
2017-11-09T09:05:07.804Z,104.57
2017-11-09T09:07:34.104Z,121.73
2017-11-09T09:10:01.156Z,106.33
2017-11-09T09:12:28.298Z,114.67
2017-11-09T09:14:55.300Z,104.30
2017-11-09T09:17:21.588Z,103.93
2017-11-09T09:19:47.876Z,116.97
2017-11-09T09:22:18.209Z,107.60
2017-11-09T09:24:45.282Z,120.97
2017-11-09T09:41:17.692Z,112.43
2017-11-09T09:49:44.890Z,119.40
2017-11-09T10:04:43.468Z,90.30
2017-11-09T10:07:34.122Z,96.50
2017-11-09T10:10:33.797Z,104.63
2017-11-09T10:22:26.905Z,94.33
2017-11-09T10:24:53.258Z,94.63
2017-11-09T10:27:19.524Z,90.33
2017-11-09T10:29:45.868Z,85.03
2017-11-09T10:32:12.247Z,89.40
2017-11-09T10:34:40.488Z,83.00
2017-11-09T10:37:06.842Z,90.00
2017-11-09T10:39:33.364Z,86.37
2017-11-09T10:41:59.665Z,87.13
2017-11-09T10:44:25.977Z,86.07
2017-11-09T10:46:52.319Z,94.20
2017-11-09T10:49:18.629Z,85.13
2017-11-09T10:51:45.102Z,93.37
2017-11-09T10:54:11.390Z,89.27
2017-11-09T10:56:37.776Z,93.70
2017-11-09T10:59:04.833Z,101.07
2017-11-09T11:01:31.899Z,93.43
2017-11-09T11:03:58.171Z,96.87
2017-11-09T11:06:24.565Z,95.57
2017-11-09T11:08:50.874Z,95.43
2017-11-09T11:11:17.176Z,90.93
2017-11-09T11:13:43.479Z,88.90
2017-11-09T11:16:09.791Z,103.53
2017-11-09T11:18:36.095Z,99.50
2017-11-09T11:21:02.440Z,98.13
2017-11-09T11:23:28.756Z,89.43
2017-11-09T11:25:55.167Z,93.30
2017-11-09T11:28:21.714Z,101.20
2017-11-09T11:30:49.228Z,104.30
2017-11-09T11:33:15.520Z,113.60
2017-11-09T11:35:41.793Z,114.80
2017-11-09T11:38:08.155Z,111.63
2017-11-09T11:40:34.520Z,113.23
2017-11-09T11:43:00.822Z,115.00
2017-11-09T11:45:27.087Z,126.70
2017-11-09T11:47:55.106Z,119.70
2017-11-09T11:50:21.359Z,117.33
2017-11-09T11:52:48.371Z,109.90
2017-11-09T11:55:14.691Z,118.90
2017-11-09T11:57:41.006Z,111.63
2017-11-09T12:00:07.335Z,124.67
2017-11-09T12:02:33.747Z,117.13
2017-11-09T12:05:00.068Z,116.03
2017-11-09T12:07:26.341Z,109.30
2017-11-09T12:09:52.697Z,114.30
2017-11-09T12:12:23.643Z,122.77
2017-11-09T12:14:49.963Z,112.67
2017-11-09T12:17:17.060Z,120.63
2017-11-09T12:19:43.369Z,127.57
2017-11-09T12:22:09.647Z,112.90
2017-11-09T12:24:36.001Z,122.30
2017-11-09T12:27:03.119Z,110.57
2017-11-09T12:29:29.483Z,109.97
2017-11-09T12:31:57.731Z,120.77
2017-11-09T12:34:24.151Z,119.57
2017-11-09T12:36:50.603Z,115.00
2017-11-09T12:39:17.757Z,123.27
2017-11-09T12:41:44.801Z,105.50
2017-11-09T12:44:11.122Z,127.97
2017-11-09T12:46:37.376Z,112.33
2017-11-09T12:49:03.660Z,120.97
2017-11-09T12:51:29.901Z,123.87
2017-11-09T12:53:56.148Z,126.53
2017-11-09T12:56:22.512Z,120.80
2017-11-09T12:58:49.530Z,125.23
2017-11-09T13:01:16.560Z,123.53
2017-11-09T13:03:43.717Z,122.00
2017-11-09T13:06:10.059Z,129.60
2017-11-09T13:08:36.429Z,138.67
2017-11-09T13:11:02.752Z,134.53
2017-11-09T13:13:29.044Z,124.07
2017-11-09T13:15:55.384Z,132.47
2017-11-09T13:18:21.637Z,121.97
2017-11-09T13:20:47.914Z,120.73
2017-11-09T13:23:14.177Z,123.43
2017-11-09T13:25:41.217Z,114.90
2017-11-09T13:28:08.469Z,120.20
2017-11-09T13:30:35.641Z,115.37
2017-11-09T13:33:02.161Z,121.13
2017-11-09T13:35:29.319Z,131.03
2017-11-09T13:37:55.633Z,121.40
2017-11-09T13:40:24.616Z,132.23
2017-11-09T13:42:56.139Z,125.80
2017-11-09T13:45:22.381Z,128.10
2017-11-09T13:47:48.696Z,123.90
2017-11-09T13:50:15.021Z,136.20
2017-11-09T13:52:41.314Z,134.90
2017-11-09T13:55:10.364Z,137.97
2017-11-09T13:57:37.675Z,138.43
2017-11-09T14:00:04.002Z,134.97
2017-11-09T14:02:30.268Z,135.00
2017-11-09T14:04:56.733Z,145.80
2017-11-09T14:07:23.624Z,126.83
2017-11-09T14:09:50.001Z,142.57
2017-11-09T14:12:16.268Z,133.13
2017-11-09T14:14:45.177Z,137.13
2017-11-09T14:17:11.444Z,123.87
2017-11-09T14:19:38.164Z,139.27
2017-11-09T14:22:04.440Z,144.23
2017-11-09T14:24:31.441Z,134.10
2017-11-09T14:26:57.718Z,155.60
2017-11-09T14:29:23.933Z,135.10
2017-11-09T14:31:50.936Z,129.77
2017-11-09T14:34:17.196Z,128.43
2017-11-09T14:36:44.183Z,124.33
2017-11-09T14:39:10.438Z,124.70
2017-11-09T14:41:36.736Z,129.27
2017-11-09T14:44:03.015Z,134.67
2017-11-09T14:46:30.124Z,130.23
2017-11-09T14:48:56.564Z,137.57
2017-11-09T14:51:22.811Z,114.80
2017-11-09T14:53:50.106Z,128.67
2017-11-09T14:56:16.424Z,122.70
2017-11-09T14:58:43.400Z,143.50
2017-11-09T15:01:09.828Z,114.43
2017-11-09T15:03:36.360Z,137.50
2017-11-09T15:06:03.226Z,143.53
2017-11-09T15:08:29.559Z,143.70
2017-11-09T15:10:55.856Z,141.77
2017-11-09T15:13:22.215Z,130.77
2017-11-09T15:15:54.469Z,140.73
2017-11-09T15:18:21.411Z,139.67
2017-11-09T15:20:47.718Z,144.87
2017-11-09T15:23:15.463Z,139.63
2017-11-09T15:25:41.820Z,119.47
2017-11-09T15:28:08.073Z,148.33
2017-11-09T15:30:35.503Z,132.97
2017-11-09T15:33:01.966Z,147.90
2017-11-09T15:35:28.265Z,141.77
2017-11-09T15:37:55.329Z,130.87
2017-11-09T15:40:21.596Z,129.70
2017-11-09T15:42:48.735Z,129.50
2017-11-09T15:45:15.078Z,125.47
2017-11-09T15:47:41.337Z,142.17
2017-11-09T15:50:07.579Z,130.93
2017-11-09T15:52:34.555Z,135.20
2017-11-09T15:55:00.813Z,133.57
2017-11-09T15:57:27.034Z,136.17
2017-11-09T15:59:53.273Z,139.37
2017-11-09T16:02:19.507Z,144.00
2017-11-09T16:04:46.512Z,135.23
2017-11-09T16:07:17.763Z,148.60
2017-11-09T16:09:44.075Z,149.80
2017-11-09T16:12:10.336Z,124.63
2017-11-09T16:14:36.625Z,160.10
2017-11-09T16:17:02.929Z,146.67
2017-11-09T16:19:29.948Z,153.10
2017-11-09T16:21:56.200Z,147.70
2017-11-09T16:24:22.442Z,147.60
2017-11-09T16:26:49.429Z,153.30
2017-11-09T16:29:15.815Z,148.77
2017-11-09T16:31:42.795Z,148.27
2017-11-09T16:34:09.019Z,140.77
2017-11-09T16:36:35.268Z,143.80
2017-11-09T16:39:01.577Z,143.53
2017-11-09T16:41:27.827Z,148.97
2017-11-09T16:43:54.102Z,149.53
2017-11-09T16:46:21.214Z,144.00
2017-11-09T16:48:47.518Z,138.40
2017-11-09T16:51:20.729Z,128.30
2017-11-09T16:53:47.090Z,150.53
2017-11-09T16:56:13.363Z,165.53
2017-11-09T16:58:41.516Z,148.23
2017-11-09T17:01:07.756Z,151.13
2017-11-09T17:03:34.031Z,155.53
2017-11-09T17:06:00.259Z,154.90
2017-11-09T17:08:26.572Z,140.57
2017-11-09T17:10:53.622Z,156.67
2017-11-09T17:13:19.902Z,146.87
2017-11-09T17:15:47.035Z,165.40
2017-11-09T17:18:19.063Z,153.80
2017-11-09T17:20:45.370Z,161.50
2017-11-09T17:23:11.705Z,158.00
2017-11-09T17:25:37.953Z,161.80
2017-11-09T17:28:04.423Z,147.60
2017-11-09T17:30:31.421Z,160.90
2017-11-09T17:32:57.667Z,162.27
2017-11-09T17:35:24.007Z,148.37
2017-11-09T17:37:51.037Z,164.07
2017-11-09T17:40:17.326Z,160.37
2017-11-09T17:42:49.763Z,151.93
2017-11-09T17:45:16.241Z,142.37
2017-11-09T17:47:42.703Z,156.27
2017-11-09T17:50:09.304Z,149.40
2017-11-09T17:52:35.643Z,161.53
2017-11-09T17:55:02.250Z,162.73
2017-11-09T17:57:29.048Z,156.40
2017-11-09T18:00:02.694Z,167.47
2017-11-09T18:02:29.456Z,156.50
2017-11-09T18:04:56.045Z,171.67
2017-11-09T18:07:22.764Z,157.10
2017-11-09T18:09:49.704Z,165.83
2017-11-09T18:12:16.239Z,169.37
2017-11-09T18:14:43.791Z,145.27
2017-11-09T18:17:10.623Z,166.73
2017-11-09T18:19:37.335Z,164.77
2017-11-09T18:22:04.090Z,178.87
2017-11-09T18:24:30.676Z,176.27
2017-11-09T18:26:56.961Z,179.80
2017-11-09T18:29:23.228Z,182.50
2017-11-09T18:31:51.592Z,164.60
2017-11-09T18:34:17.906Z,171.00
2017-11-09T18:36:44.368Z,162.40
2017-11-09T18:39:10.761Z,165.80
2017-11-09T18:41:37.041Z,161.07
2017-11-09T18:44:04.656Z,161.43
2017-11-09T18:46:31.289Z,164.07
2017-11-09T18:48:57.611Z,192.67
2017-11-09T18:51:23.867Z,166.33
2017-11-09T18:53:53.470Z,174.83
2017-11-09T18:56:20.070Z,173.27
2017-11-09T18:58:47.034Z,160.37
2017-11-09T19:01:13.575Z,154.80
2017-11-09T19:03:39.811Z,156.40
2017-11-09T19:06:06.631Z,162.53
2017-11-09T19:08:33.527Z,166.83
2017-11-09T19:11:00.615Z,161.60
2017-11-09T19:13:26.967Z,169.97
2017-11-09T19:15:53.360Z,164.67
2017-11-09T19:18:19.614Z,160.23
2017-11-09T19:20:46.118Z,157.57
2017-11-09T19:23:15.925Z,157.70
2017-11-09T19:25:43.092Z,176.57
2017-11-09T19:28:10.108Z,173.70
2017-11-09T19:30:36.360Z,160.83
2017-11-09T19:33:03.397Z,159.70
2017-11-09T19:35:30.411Z,160.83
2017-11-09T19:37:56.719Z,168.13
2017-11-09T19:40:23.125Z,160.40
2017-11-09T19:42:49.445Z,165.63
2017-11-09T19:45:16.440Z,179.47
2017-11-09T19:47:42.730Z,167.30
2017-11-09T19:50:09.741Z,154.90
2017-11-09T19:52:36.045Z,150.70
2017-11-09T19:55:02.336Z,158.37
2017-11-09T19:57:29.282Z,172.77
2017-11-09T19:59:56.854Z,157.80
2017-11-09T20:02:23.274Z,153.60
2017-11-09T20:04:49.528Z,163.20
2017-11-09T20:07:15.836Z,158.93
2017-11-09T20:09:42.605Z,156.77
2017-11-09T20:12:09.736Z,149.83
2017-11-09T20:14:36.218Z,164.20
2017-11-09T20:17:02.722Z,167.30
2017-11-09T20:19:29.376Z,161.17
2017-11-09T20:21:55.817Z,144.23
2017-11-09T20:24:22.911Z,152.57
2017-11-09T20:26:49.528Z,157.20
2017-11-09T20:29:16.469Z,147.00
2017-11-09T20:31:43.647Z,145.30
2017-11-09T20:34:10.008Z,155.70
2017-11-09T20:36:36.502Z,151.27
2017-11-09T20:39:03.488Z,156.83
2017-11-09T20:41:31.114Z,159.40
2017-11-09T20:43:57.480Z,156.70
2017-11-09T20:46:23.922Z,156.73
2017-11-09T20:48:50.498Z,166.73
2017-11-09T20:51:16.849Z,130.90
2017-11-09T20:53:44.586Z,156.07
2017-11-09T20:56:11.845Z,139.77
2017-11-09T20:58:38.238Z,144.77
2017-11-09T21:01:05.271Z,150.77
2017-11-09T21:03:37.866Z,136.97
2017-11-09T21:06:10.296Z,141.03
2017-11-09T21:08:43.625Z,144.00
2017-11-09T21:11:17.337Z,131.07
2017-11-09T21:13:50.183Z,140.73
2017-11-09T21:16:30.977Z,149.03
2017-11-09T21:19:04.848Z,126.40
2017-11-09T21:21:37.766Z,132.60
2017-11-09T21:24:10.283Z,129.43
2017-11-09T21:26:42.652Z,145.57
2017-11-09T21:29:15.911Z,140.50
2017-11-09T21:31:48.469Z,134.37
2017-11-09T21:34:21.742Z,134.90
2017-11-09T21:36:54.560Z,132.57
2017-11-09T21:39:27.600Z,126.07
2017-11-09T21:42:00.867Z,135.57
2017-11-09T21:44:34.140Z,148.07
2017-11-09T21:47:06.712Z,120.97
2017-11-09T21:49:39.743Z,127.20
2017-11-09T21:52:12.063Z,130.23
2017-11-09T21:54:44.465Z,129.47
2017-11-09T21:57:17.456Z,132.30
2017-11-09T21:59:49.972Z,132.70
2017-11-09T22:02:22.436Z,120.63
2017-11-09T22:04:55.159Z,125.30
2017-11-09T22:07:27.590Z,126.57
2017-11-09T22:10:00.768Z,123.23
2017-11-09T22:12:33.704Z,134.77
2017-11-09T22:15:06.337Z,129.60
2017-11-09T22:17:39.658Z,120.37
2017-11-09T22:20:12.400Z,117.57
2017-11-09T22:22:45.007Z,134.30
2017-11-09T22:25:18.209Z,123.40
2017-11-09T22:27:52.063Z,120.10
2017-11-09T22:30:24.605Z,118.07
2017-11-09T22:32:56.932Z,125.67
2017-11-09T22:35:30.133Z,116.97
2017-11-09T22:38:03.329Z,124.37
2017-11-09T22:40:35.677Z,108.70
2017-11-09T22:43:11.401Z,116.87
2017-11-09T22:45:54.448Z,123.10
2017-11-09T22:48:26.916Z,121.50
2017-11-09T22:50:59.392Z,110.23
2017-11-09T22:53:31.839Z,131.27
2017-11-09T22:56:04.160Z,119.37
2017-11-09T22:58:36.929Z,111.37
2017-11-09T23:01:09.476Z,123.90
2017-11-09T23:03:41.814Z,115.20
2017-11-09T23:06:14.968Z,112.93
2017-11-09T23:08:47.525Z,109.80
2017-11-09T23:11:20.120Z,111.87
2017-11-09T23:13:52.769Z,108.53
2017-11-09T23:16:25.157Z,108.77
2017-11-09T23:18:57.583Z,112.60
2017-11-09T23:21:30.809Z,101.20
2017-11-09T23:24:03.218Z,111.33
2017-11-09T23:26:35.640Z,118.37
2017-11-09T23:29:08.130Z,106.80
2017-11-09T23:31:40.655Z,106.40
2017-11-09T23:34:12.924Z,105.77
2017-11-09T23:36:45.313Z,110.33
2017-11-09T23:39:18.341Z,106.77
2017-11-09T23:41:50.782Z,103.47
2017-11-09T23:44:23.195Z,113.27
2017-11-09T23:46:56.335Z,97.30
2017-11-09T23:49:28.680Z,102.00
2017-11-09T23:52:01.201Z,105.53
2017-11-09T23:54:33.785Z,102.27
2017-11-09T23:57:06.172Z,98.00
2017-11-09T23:59:38.570Z,92.43
